Time;durP1;ratioP1;P1;durP2;ratioP2;P2;SDS_P1;SDS_P2;PMS_P1;PMS_P2;Temp;Humidity;BMP_temperature;BMP_pressure;BME280_temperature;BME280_humidity;BME280_pressure;Samples;Min_cycle;Max_cycle;Signal;HPM_P1;HPM_P2
2021/09/21 00:00:19;;;;;;;30.65;27.58;;;;;;;5.45;100.00;99742.81;2050446;29;20183;-80
2021/09/21 00:01:21;;;;;;;30.60;27.20;;;;;;;5.46;100.00;99738.31;2050261;29;20289;-80
2021/09/21 00:02:22;;;;;;;29.75;26.73;;;;;;;5.49;100.00;99740.50;2050332;29;20234;-80
2021/09/21 00:03:23;;;;;;;30.33;27.10;;;;;;;5.57;100.00;99743.53;2050992;28;20194;-75
2021/09/21 00:04:27;;;;;;;35.35;29.38;;;;;;;5.61;100.00;99743.81;2050893;29;20190;-76
2021/09/21 00:05:31;;;;;;;32.92;28.55;;;;;;;5.66;100.00;99742.03;2050950;28;20234;-80
2021/09/21 00:06:31;;;;;;;31.60;28.25;;;;;;;5.70;100.00;99745.00;2050282;29;20673;-79
2021/09/21 00:07:33;;;;;;;38.47;28.60;;;;;;;5.75;100.00;99752.19;2050395;29;20663;-80
2021/09/21 00:08:36;;;;;;;31.40;28.02;;;;;;;5.78;100.00;99751.69;2050344;29;20241;-80
2021/09/21 00:09:37;;;;;;;31.35;28.00;;;;;;;5.79;100.00;99746.16;2050340;29;20760;-79
2021/09/21 00:10:38;;;;;;;32.05;28.65;;;;;;;5.85;100.00;99747.03;2051104;29;20249;-80
2021/09/21 00:11:39;;;;;;;33.60;28.40;;;;;;;5.89;100.00;99750.75;2050992;28;20194;-80
2021/09/21 00:12:40;;;;;;;33.50;29.13;;;;;;;5.89;100.00;99743.63;2050871;29;20277;-80
2021/09/21 00:13:42;;;;;;;32.90;29.23;;;;;;;5.92;100.00;99745.81;2050287;29;20202;-79
2021/09/21 00:14:43;;;;;;;32.72;28.05;;;;;;;5.93;100.00;99749.25;2050584;29;20268;-79
2021/09/21 00:15:45;;;;;;;34.10;29.17;;;;;;;5.96;100.00;99748.75;2050160;29;20217;-79
2021/09/21 00:16:45;;;;;;;31.83;28.58;;;;;;;5.98;100.00;99751.16;2050484;29;20214;-79
2021/09/21 00:17:48;;;;;;;31.60;28.30;;;;;;;5.99;100.00;99750.09;2050143;29;20209;-80
2021/09/21 00:18:49;;;;;;;31.65;27.98;;;;;;;6.00;100.00;99749.06;2050386;29;20182;-79
2021/09/21 00:19:50;;;;;;;34.70;29.27;;;;;;;6.01;100.00;99751.47;2050147;29;20206;-79
2021/09/21 00:20:52;;;;;;;32.45;28.98;;;;;;;6.03;100.00;99748.56;2050411;29;20198;-79
2021/09/21 00:21:53;;;;;;;32.25;28.55;;;;;;;6.06;100.00;99748.06;2050965;29;20241;-79
2021/09/21 00:22:56;;;;;;;31.90;28.08;;;;;;;6.06;100.00;99742.75;2050815;29;20273;-79
2021/09/21 00:23:59;;;;;;;32.05;28.65;;;;;;;6.09;100.00;99750.22;2049655;29;20205;-78
2021/09/21 00:25:00;;;;;;;31.85;27.30;;;;;;;6.09;100.00;99748.38;2042369;29;20207;-80
2021/09/21 00:26:03;;;;;;;31.03;26.87;;;;;;;6.11;100.00;99754.22;2042243;29;20290;-80
2021/09/21 00:27:04;;;;;;;31.90;28.23;;;;;;;6.11;100.00;99750.78;2050394;29;20225;-80
2021/09/21 00:28:06;;;;;;;31.83;27.13;;;;;;;6.11;100.00;99748.91;2050788;29;20658;-80
2021/09/21 00:29:08;;;;;;;31.52;28.10;;;;;;;6.13;100.00;99749.47;2050162;29;20289;-80
2021/09/21 00:30:12;;;;;;;31.38;28.08;;;;;;;6.15;100.00;99749.22;2042237;29;20713;-80
2021/09/21 00:31:14;;;;;;;31.65;28.30;;;;;;;6.13;100.00;99752.13;2050361;29;20241;-81
2021/09/21 00:32:24;;;;;;;31.98;27.42;;;;;;;6.16;100.00;99756.91;2050057;29;20240;-80
2021/09/21 00:33:35;;;;;;;32.10;27.50;;;;;;;6.15;100.00;99746.56;2043711;29;20206;-80
2021/09/21 00:34:37;;;;;;;30.77;27.45;;;;;;;6.16;100.00;99751.59;2043066;29;20290;-80
2021/09/21 00:35:39;;;;;;;31.80;27.70;;;;;;;6.14;100.00;99744.97;2042352;29;20727;-80
2021/09/21 00:36:41;;;;;;;31.13;27.92;;;;;;;6.14;100.00;99744.97;2050177;29;20214;-80
2021/09/21 00:37:43;;;;;;;33.90;27.70;;;;;;;6.11;100.00;99740.97;2041978;29;20378;-80
2021/09/21 00:38:44;;;;;;;29.42;26.48;;;;;;;6.13;100.00;99741.53;2041880;29;20199;-80
2021/09/21 00:39:49;;;;;;;30.67;27.50;;;;;;;6.12;100.00;99753.16;2050185;29;20195;-80
2021/09/21 00:40:50;;;;;;;33.35;26.80;;;;;;;6.11;100.00;99746.28;2050047;29;20209;-80
2021/09/21 00:41:51;;;;;;;30.50;27.02;;;;;;;6.12;100.00;99749.72;2050176;29;20660;-80
2021/09/21 00:42:52;;;;;;;32.05;28.48;;;;;;;6.12;100.00;99760.31;2050547;29;20570;-80
2021/09/21 00:43:54;;;;;;;32.43;28.97;;;;;;;6.09;100.00;99750.22;2050624;28;20187;-80
2021/09/21 00:44:56;;;;;;;33.33;29.75;;;;;;;6.08;100.00;99753.91;2048635;29;20272;-80
2021/09/21 00:45:59;;;;;;;32.88;28.05;;;;;;;6.04;100.00;99744.88;2050015;29;20198;-80
2021/09/21 00:47:01;;;;;;;34.15;29.27;;;;;;;6.01;100.00;99740.88;2042329;29;20693;-80
2021/09/21 00:48:03;;;;;;;32.53;29.23;;;;;;;5.98;100.00;99751.16;2042146;29;20203;-80
2021/09/21 00:49:04;;;;;;;31.95;28.63;;;;;;;5.93;100.00;99742.13;2050118;29;20666;-80
2021/09/21 00:50:06;;;;;;;33.65;30.13;;;;;;;5.91;100.00;99746.06;2050572;29;20289;-80
2021/09/21 00:51:09;;;;;;;32.58;28.88;;;;;;;5.90;100.00;99744.41;2050646;29;20182;-80
2021/09/21 00:52:09;;;;;;;32.60;28.73;;;;;;;5.84;100.00;99735.63;2049942;29;20245;-80
2021/09/21 00:53:11;;;;;;;31.43;28.23;;;;;;;5.84;100.00;99740.91;2050198;29;20676;-80
2021/09/21 00:54:15;;;;;;;34.35;28.10;;;;;;;5.79;100.00;99732.91;2049954;29;20256;-80
2021/09/21 00:55:19;;;;;;;31.52;28.23;;;;;;;5.75;100.00;99733.66;2049832;29;20202;-80
2021/09/21 00:56:20;;;;;;;31.42;27.95;;;;;;;5.75;100.00;99736.31;2050039;29;20201;-80
2021/09/21 00:57:21;;;;;;;32.07;28.77;;;;;;;5.68;100.00;99731.19;2050757;29;20201;-80
2021/09/21 00:58:22;;;;;;;33.97;29.48;;;;;;;5.68;100.00;99732.00;2049799;28;20218;-80
2021/09/21 00:59:24;;;;;;;33.10;29.50;;;;;;;5.64;100.00;99732.72;2041859;29;20266;-79
2021/09/21 01:00:25;;;;;;;33.47;28.92;;;;;;;5.62;100.00;99730.34;2042101;29;20195;-80
2021/09/21 01:01:29;;;;;;;32.60;29.20;;;;;;;5.58;100.00;99734.53;2050286;28;20198;-80
2021/09/21 01:02:29;;;;;;;36.35;30.67;;;;;;;5.57;100.00;99725.00;2049992;29;20206;-80
2021/09/21 01:03:31;;;;;;;35.30;29.67;;;;;;;5.55;100.00;99729.72;2050176;29;20285;-80
2021/09/21 01:04:32;;;;;;;34.28;29.67;;;;;;;5.54;100.00;99732.59;2050480;28;20190;-80
2021/09/21 01:05:35;;;;;;;34.63;29.77;;;;;;;5.53;100.00;99723.88;2050556;29;20202;-80
2021/09/21 01:06:36;;;;;;;33.92;29.83;;;;;;;5.52;100.00;99726.78;2050527;29;20225;-79
2021/09/21 01:07:38;;;;;;;33.43;27.90;;;;;;;5.47;100.00;99714.25;2050509;29;20190;-80
2021/09/21 01:08:41;;;;;;;36.55;29.55;;;;;;;5.46;100.00;99725.91;2049895;29;20296;-80
2021/09/21 01:09:43;;;;;;;35.15;29.20;;;;;;;5.44;100.00;99727.19;2050055;29;20612;-80
2021/09/21 01:10:45;;;;;;;34.30;29.02;;;;;;;5.44;100.00;99730.63;2049720;29;20218;-80
2021/09/21 01:11:48;;;;;;;32.90;29.20;;;;;;;5.42;100.00;99732.72;2041891;29;20203;-80
2021/09/21 01:12:48;;;;;;;34.80;30.30;;;;;;;5.42;100.00;99719.50;2042002;29;20247;-79
2021/09/21 01:13:50;;;;;;;34.97;29.03;;;;;;;5.40;100.00;99721.59;2049957;29;20650;-80
2021/09/21 01:14:52;;;;;;;35.58;30.45;;;;;;;5.36;100.00;99720.47;2049665;29;20293;-79
2021/09/21 01:15:55;;;;;;;37.28;31.20;;;;;;;5.34;100.00;99727.88;2042364;29;20217;-79
2021/09/21 01:16:56;;;;;;;34.65;29.98;;;;;;;5.36;100.00;99725.78;2041966;29;20704;-80
2021/09/21 01:17:58;;;;;;;36.72;30.05;;;;;;;5.34;100.00;99731.31;2049761;29;20194;-80
2021/09/21 01:18:59;;;;;;;41.85;31.38;;;;;;;5.33;100.00;99731.56;2049853;29;20314;-80
2021/09/21 01:20:01;;;;;;;38.97;31.23;;;;;;;5.31;100.00;99715.94;2049728;29;20704;-80
2021/09/21 01:21:04;;;;;;;37.35;30.42;;;;;;;5.31;100.00;99725.72;2049889;29;20229;-80
2021/09/21 01:22:09;;;;;;;38.92;30.80;;;;;;;5.32;100.00;99732.59;2049741;29;20595;-80
2021/09/21 01:23:10;;;;;;;41.47;32.15;;;;;;;5.32;100.00;99728.13;2049883;29;20202;-80
2021/09/21 01:24:12;;;;;;;45.07;32.10;;;;;;;5.33;100.00;99723.63;2041823;29;20191;-80
2021/09/21 01:25:14;;;;;;;40.40;31.17;;;;;;;5.32;100.00;99722.03;2041967;29;20686;-80
2021/09/21 01:26:16;;;;;;;44.58;32.55;;;;;;;5.29;100.00;99720.66;2049783;29;20253;-79
2021/09/21 01:27:16;;;;;;;47.30;33.08;;;;;;;5.29;100.00;99723.28;2050403;29;20193;-79
2021/09/21 01:28:18;;;;;;;43.90;32.23;;;;;;;5.31;100.00;99729.16;2049736;29;20198;-80
2021/09/21 01:29:20;;;;;;;43.95;33.35;;;;;;;5.31;100.00;99725.72;2041774;29;20209;-80
2021/09/21 01:30:21;;;;;;;45.03;32.78;;;;;;;5.30;100.00;99719.63;2049654;29;20262;-79
2021/09/21 01:31:22;;;;;;;45.15;33.17;;;;;;;5.31;100.00;99725.72;2041784;29;20293;-79
2021/09/21 01:32:25;;;;;;;46.78;33.33;;;;;;;5.27;100.00;99728.03;2049700;29;20281;-80
2021/09/21 01:33:26;;;;;;;42.30;31.98;;;;;;;5.24;100.00;99722.44;2049650;29;20217;-79
2021/09/21 01:34:27;;;;;;;48.10;32.47;;;;;;;5.29;100.00;99730.44;2049847;29;20186;-80
2021/09/21 01:35:32;;;;;;;43.10;32.03;;;;;;;5.30;100.00;99732.03;2049608;29;20638;-80
2021/09/21 01:36:34;;;;;;;47.65;33.65;;;;;;;5.33;100.00;99728.91;2049672;29;20676;-79
2021/09/21 01:37:39;;;;;;;46.37;33.53;;;;;;;5.28;100.00;99734.13;2049912;29;20194;-79
2021/09/21 01:38:39;;;;;;;46.50;33.72;;;;;;;5.26;100.00;99733.56;2049617;29;20201;-79
2021/09/21 01:39:41;;;;;;;50.97;33.90;;;;;;;5.26;100.00;99734.38;2049564;29;20210;-80
2021/09/21 01:40:42;;;;;;;50.92;33.72;;;;;;;5.26;100.00;99733.56;2049195;29;20236;-79
2021/09/21 01:41:44;;;;;;;50.03;35.13;;;;;;;5.24;100.00;99736.47;2041724;29;20203;-80
2021/09/21 01:42:46;;;;;;;49.78;33.20;;;;;;;5.23;100.00;99732.22;2041391;29;20245;-79
2021/09/21 01:43:48;;;;;;;46.17;32.33;;;;;;;5.24;100.00;99739.13;2041809;29;20207;-79
2021/09/21 01:44:49;;;;;;;49.15;33.88;;;;;;;5.22;100.00;99732.47;2041866;29;20628;-80
2021/09/21 01:45:51;;;;;;;48.90;33.70;;;;;;;5.19;100.00;99730.31;2041650;29;20290;-80
2021/09/21 01:46:51;;;;;;;46.40;32.85;;;;;;;5.17;100.00;99730.56;2049657;29;20210;-80
2021/09/21 01:47:53;;;;;;;49.87;33.90;;;;;;;5.17;100.00;99737.69;2049432;29;20202;-79
2021/09/21 01:48:54;;;;;;;45.60;32.65;;;;;;;5.19;100.00;99732.94;2041245;29;20238;-80
2021/09/21 01:50:18;;;;;;;49.67;33.00;;;;;;;5.14;100.00;99731.03;2049793;29;20674;-79
2021/09/21 01:51:27;;;;;;;43.03;31.60;;;;;;;5.11;100.00;99734.16;2050207;29;20202;-79
2021/09/21 01:52:33;;;;;;;46.50;32.63;;;;;;;5.10;100.00;99735.22;2049491;29;20657;-79
2021/09/21 01:53:42;;;;;;;47.45;31.67;;;;;;;5.09;100.00;99728.31;2049683;29;20677;-79
2021/09/21 01:55:00;;;;;;;42.10;31.40;;;;;;;5.14;100.00;99740.84;2050515;29;20254;-79
2021/09/21 01:58:48;;;;;;;43.50;31.98;;;;;;;5.08;100.00;99732.81;2050120;28;20225;-80
2021/09/21 01:59:49;;;;;;;48.08;32.05;;;;;;;5.08;100.00;99734.66;2049087;29;20230;-79
2021/09/21 02:00:50;;;;;;;43.63;31.50;;;;;;;5.10;100.00;99730.72;2049469;29;20194;-80
2021/09/21 02:01:52;;;;;;;43.70;32.17;;;;;;;5.10;100.00;99733.34;2049525;29;20222;-79
2021/09/21 02:02:53;;;;;;;50.75;33.20;;;;;;;5.09;100.00;99728.31;2041604;29;20198;-79
2021/09/21 02:04:00;;;;;;;45.20;32.30;;;;;;;5.09;100.00;99730.97;2049553;29;20225;-79
2021/09/21 02:05:01;;;;;;;41.25;30.55;;;;;;;5.08;100.00;99721.44;2049215;29;20253;-79
2021/09/21 02:06:04;;;;;;;41.97;31.83;;;;;;;5.06;100.00;99720.88;2041542;29;20230;-80
2021/09/21 02:07:05;;;;;;;48.75;32.78;;;;;;;5.06;100.00;99726.16;2041737;29;20202;-79
2021/09/21 02:08:07;;;;;;;40.33;31.73;;;;;;;5.04;100.00;99728.25;2049526;29;20186;-80
2021/09/21 02:09:10;;;;;;;42.47;32.67;;;;;;;5.06;100.00;99734.09;2049426;29;20592;-80
2021/09/21 02:10:14;;;;;;;40.30;31.60;;;;;;;5.01;100.00;99729.53;2049655;29;20198;-79
2021/09/21 02:11:15;;;;;;;41.53;32.53;;;;;;;5.02;100.00;99727.69;2049491;29;20191;-79
2021/09/21 02:12:17;;;;;;;39.35;31.05;;;;;;;4.98;100.00;99735.31;2041771;29;20243;-79
2021/09/21 02:13:17;;;;;;;42.90;32.33;;;;;;;5.00;100.00;99729.78;2041598;29;20191;-79
2021/09/21 02:14:22;;;;;;;40.57;31.87;;;;;;;4.98;100.00;99734.50;2041789;29;20199;-80
2021/09/21 02:15:22;;;;;;;42.42;32.10;;;;;;;4.97;100.00;99736.34;2049479;29;20321;-80
2021/09/21 02:16:24;;;;;;;44.10;31.50;;;;;;;4.99;100.00;99742.19;2049395;29;20202;-79
2021/09/21 02:17:25;;;;;;;43.20;32.15;;;;;;;5.00;100.00;99745.66;2049456;29;20218;-79
2021/09/21 02:18:28;;;;;;;45.97;33.23;;;;;;;4.99;100.00;99741.41;2049332;29;20198;-80
2021/09/21 02:19:28;;;;;;;43.58;30.88;;;;;;;5.02;100.00;99748.84;2049447;29;20804;-79
2021/09/21 02:20:30;;;;;;;43.10;31.53;;;;;;;5.04;100.00;99741.50;2049208;29;20224;-80
2021/09/21 02:21:32;;;;;;;39.40;29.95;;;;;;;5.06;100.00;99744.69;2049472;29;20732;-79
2021/09/21 02:22:33;;;;;;;41.88;30.63;;;;;;;5.06;100.00;99750.78;2050157;28;20226;-80
2021/09/21 02:23:35;;;;;;;39.90;30.30;;;;;;;5.03;100.00;99745.94;2049970;29;20190;-80
2021/09/21 02:24:37;;;;;;;42.47;30.10;;;;;;;5.06;100.00;99750.78;2049284;29;20708;-79
2021/09/21 02:25:39;;;;;;;39.95;30.00;;;;;;;5.06;100.00;99753.41;2041402;29;20727;-79
2021/09/21 02:26:40;;;;;;;39.13;30.38;;;;;;;5.07;100.00;99752.38;2049247;29;20245;-80
2021/09/21 02:27:42;;;;;;;42.80;31.30;;;;;;;5.07;100.00;99744.44;2049225;29;20293;-79
2021/09/21 02:28:44;;;;;;;39.53;30.73;;;;;;;5.11;100.00;99750.03;2041402;29;20210;-80
2021/09/21 02:29:44;;;;;;;43.47;31.83;;;;;;;5.15;100.00;99751.16;2049224;29;20209;-80
2021/09/21 02:30:46;;;;;;;42.07;31.13;;;;;;;5.15;100.00;99750.38;2049529;29;20218;-79
2021/09/21 02:31:48;;;;;;;39.70;30.45;;;;;;;5.20;100.00;99756.50;2049340;29;20692;-79
2021/09/21 02:32:50;;;;;;;39.03;31.60;;;;;;;5.22;100.00;99743.06;2041248;29;20207;-79
2021/09/21 02:33:51;;;;;;;37.30;30.38;;;;;;;5.24;100.00;99752.34;2049574;29;20197;-80
2021/09/21 02:34:53;;;;;;;42.60;32.00;;;;;;;5.23;100.00;99753.41;2049161;29;20290;-80
2021/09/21 02:35:53;;;;;;;41.67;30.58;;;;;;;5.23;100.00;99747.31;2041351;29;20708;-79
2021/09/21 02:36:55;;;;;;;41.10;30.17;;;;;;;5.21;100.00;99744.91;2049345;29;20630;-79
2021/09/21 02:37:56;;;;;;;42.80;30.88;;;;;;;5.18;100.00;99742.72;2049213;29;20202;-79
2021/09/21 02:39:01;;;;;;;39.40;29.40;;;;;;;5.16;100.00;99749.31;2041282;29;20211;-79
2021/09/21 02:40:04;;;;;;;34.42;28.65;;;;;;;5.13;100.00;99750.63;2049717;28;20601;-79
2021/09/21 02:41:07;;;;;;;36.22;28.92;;;;;;;5.14;100.00;99748.75;2049205;29;20557;-79
2021/09/21 02:42:08;;;;;;;37.60;29.25;;;;;;;5.10;100.00;99757.16;2049325;29;20672;-79
2021/09/21 02:43:09;;;;;;;35.83;28.37;;;;;;;5.06;100.00;99760.56;2049826;29;20552;-79
2021/09/21 02:44:10;;;;;;;36.25;28.17;;;;;;;5.00;100.00;99751.72;2049954;29;20314;-79
2021/09/21 02:45:12;;;;;;;36.85;29.58;;;;;;;4.98;100.00;99748.53;2049170;29;20303;-79
2021/09/21 02:46:14;;;;;;;35.03;28.98;;;;;;;4.98;100.00;99758.31;2049519;29;20221;-79
2021/09/21 02:47:16;;;;;;;35.25;29.70;;;;;;;4.94;100.00;99763.25;2049869;29;20553;-79
2021/09/21 02:48:16;;;;;;;35.03;28.65;;;;;;;4.93;100.00;99763.50;2049180;29;20210;-79
2021/09/21 02:49:18;;;;;;;35.73;28.50;;;;;;;4.88;100.00;99758.97;2041637;29;20187;-79
2021/09/21 02:50:19;;;;;;;37.03;29.23;;;;;;;4.87;100.00;99760.00;2049311;29;20206;-79
2021/09/21 02:51:21;;;;;;;34.83;29.80;;;;;;;4.85;100.00;99762.06;2048445;29;20230;-79
2021/09/21 02:52:22;;;;;;;35.00;28.17;;;;;;;4.85;100.00;99763.91;2049265;29;20230;-79
2021/09/21 02:53:24;;;;;;;35.45;28.67;;;;;;;4.81;100.00;99751.19;2049774;29;20210;-79
2021/09/21 02:54:25;;;;;;;37.10;29.73;;;;;;;4.85;100.00;99764.72;2049042;29;20245;-79
2021/09/21 02:55:28;;;;;;;38.97;30.43;;;;;;;4.86;100.00;99760.22;2049278;29;20201;-79
2021/09/21 02:56:29;;;;;;;39.20;30.73;;;;;;;4.87;100.00;99757.38;2049778;29;20222;-79
2021/09/21 02:57:31;;;;;;;43.30;31.47;;;;;;;4.91;100.00;99765.59;2049159;29;20205;-79
2021/09/21 02:58:33;;;;;;;41.00;31.92;;;;;;;4.91;100.00;99762.97;2049184;28;20240;-79
2021/09/21 02:59:34;;;;;;;42.83;30.83;;;;;;;4.93;100.00;99761.66;2049040;29;20230;-79
2021/09/21 03:00:36;;;;;;;47.17;32.23;;;;;;;4.92;100.00;99762.72;2049257;29;20200;-79
2021/09/21 03:01:37;;;;;;;46.97;31.85;;;;;;;4.96;100.00;99771.78;2049161;29;20458;-79
2021/09/21 03:02:41;;;;;;;46.70;31.67;;;;;;;4.94;100.00;99762.47;2041249;29;20202;-79
2021/09/21 03:03:45;;;;;;;49.60;32.08;;;;;;;4.98;100.00;99767.03;2048761;29;20205;-79
2021/09/21 03:04:53;;;;;;;46.53;31.90;;;;;;;5.00;100.00;99770.25;2049097;29;20289;-79
2021/09/21 03:05:58;;;;;;;46.83;32.63;;;;;;;5.04;100.00;99773.22;2042079;29;20191;-79
2021/09/21 03:07:04;;;;;;;48.55;33.92;;;;;;;5.06;100.00;99777.22;2049138;28;20217;-79
2021/09/21 03:08:09;;;;;;;48.60;33.17;;;;;;;5.16;100.00;99778.41;2050168;29;20179;-79
2021/09/21 03:09:14;;;;;;;48.38;32.85;;;;;;;5.17;100.00;99777.38;2050736;29;20186;-79
2021/09/21 03:10:23;;;;;;;51.30;34.17;;;;;;;5.18;100.00;99778.97;2051007;29;20564;-79
2021/09/21 03:11:28;;;;;;;46.40;32.97;;;;;;;5.19;100.00;99777.91;2051444;29;20737;-79
2021/09/21 03:12:42;;;;;;;47.78;31.35;;;;;;;5.20;100.00;99784.81;2050687;29;20198;-80
2021/09/21 03:17:52;;;;;;;44.28;31.70;;;;;;;5.31;100.00;99789.22;2050677;29;20198;-79
2021/09/21 03:18:56;;;;;;;45.05;32.47;;;;;;;5.30;100.00;99782.31;2042782;29;20687;-80
2021/09/21 03:20:00;;;;;;;45.33;32.22;;;;;;;5.29;100.00;99784.16;2050287;29;20202;-79
2021/09/21 03:21:01;;;;;;;51.05;32.67;;;;;;;5.31;100.00;99783.94;2043130;29;20202;-79
2021/09/21 03:22:03;;;;;;;45.47;32.97;;;;;;;5.31;100.00;99783.94;2050906;29;20198;-79
2021/09/21 03:23:04;;;;;;;46.38;33.72;;;;;;;5.29;100.00;99775.41;2051270;29;20653;-79
2021/09/21 03:24:06;;;;;;;47.97;32.90;;;;;;;5.31;100.00;99789.22;2051252;29;20516;-78
2021/09/21 03:25:08;;;;;;;43.95;32.22;;;;;;;5.32;100.00;99777.59;2051256;29;20195;-78
2021/09/21 03:26:10;;;;;;;46.53;32.67;;;;;;;5.33;100.00;99784.47;2050706;29;20191;-79
2021/09/21 03:27:12;;;;;;;48.08;32.15;;;;;;;5.31;100.00;99773.34;2050696;29;20240;-79
2021/09/21 03:28:15;;;;;;;44.17;32.67;;;;;;;5.33;100.00;99787.91;2051242;29;20740;-79
2021/09/21 03:29:16;;;;;;;44.65;32.63;;;;;;;5.34;100.00;99783.44;2051222;29;20197;-78
2021/09/21 03:30:17;;;;;;;44.90;33.30;;;;;;;5.35;100.00;99779.72;2050617;29;20202;-79
2021/09/21 03:31:18;;;;;;;47.83;33.10;;;;;;;5.37;100.00;99777.63;2042594;29;20330;-79
2021/09/21 03:32:20;;;;;;;54.70;34.00;;;;;;;5.37;100.00;99777.63;2042778;29;20712;-79
2021/09/21 03:33:20;;;;;;;47.45;33.17;;;;;;;5.35;100.00;99785.81;2050657;29;20203;-79
2021/09/21 03:34:22;;;;;;;47.37;31.97;;;;;;;5.35;100.00;99774.44;2050471;29;20198;-79
2021/09/21 03:35:23;;;;;;;51.40;33.70;;;;;;;5.35;100.00;99775.25;2050545;29;20245;-79
2021/09/21 03:36:25;;;;;;;52.40;33.40;;;;;;;5.29;100.00;99770.91;2042624;29;20206;-79
2021/09/21 03:37:25;;;;;;;45.25;32.85;;;;;;;5.28;100.00;99777.25;2042711;29;20631;-78
2021/09/21 03:38:27;;;;;;;44.33;32.03;;;;;;;5.27;100.00;99780.94;2050693;29;20261;-78
2021/09/21 03:39:28;;;;;;;47.67;33.67;;;;;;;5.25;100.00;99779.59;2050147;29;20316;-79
2021/09/21 03:40:30;;;;;;;52.23;32.80;;;;;;;5.24;100.00;99775.34;2042384;29;20199;-79
2021/09/21 03:41:32;;;;;;;48.17;35.05;;;;;;;5.22;100.00;99775.59;2050427;29;20637;-79
2021/09/21 03:42:36;;;;;;;55.63;34.70;;;;;;;5.22;100.00;99777.44;2042698;29;20207;-79
2021/09/21 03:43:37;;;;;;;47.95;34.25;;;;;;;5.19;100.00;99769.97;2050665;29;20195;-79
2021/09/21 03:44:39;;;;;;;56.60;34.73;;;;;;;5.17;100.00;99772.06;2051174;29;20197;-79
2021/09/21 03:45:39;;;;;;;52.85;35.25;;;;;;;5.15;100.00;99771.53;2050506;29;20229;-79
2021/09/21 03:46:41;;;;;;;53.20;35.37;;;;;;;5.13;100.00;99774.41;2050545;29;20191;-79
2021/09/21 03:47:42;;;;;;;53.78;35.88;;;;;;;5.14;100.00;99772.56;2051056;29;20285;-79
2021/09/21 03:48:44;;;;;;;52.43;34.80;;;;;;;5.09;100.00;99771.44;2051082;29;20198;-78
2021/09/21 03:49:45;;;;;;;51.80;33.85;;;;;;;5.08;100.00;99767.19;2050443;29;20217;-79
2021/09/21 03:50:47;;;;;;;51.45;35.60;;;;;;;5.09;100.00;99778.56;2050566;29;20190;-79
2021/09/21 03:51:49;;;;;;;49.53;34.35;;;;;;;5.07;100.00;99783.31;2051000;29;20218;-79
2021/09/21 03:52:50;;;;;;;48.35;34.35;;;;;;;5.10;100.00;99780.97;2050412;29;20281;-78
2021/09/21 03:53:51;;;;;;;50.03;34.25;;;;;;;5.11;100.00;99777.28;2042182;29;20632;-79
2021/09/21 03:54:53;;;;;;;52.00;34.90;;;;;;;5.14;100.00;99781.31;2050502;29;20217;-80
2021/09/21 03:55:55;;;;;;;53.03;34.58;;;;;;;5.10;100.00;99780.16;2050554;29;20737;-79
2021/09/21 03:56:57;;;;;;;50.28;35.25;;;;;;;5.10;100.00;99777.53;2051054;28;20190;-80
2021/09/21 03:58:00;;;;;;;54.10;34.93;;;;;;;5.07;100.00;99784.09;2050314;28;20206;-79
2021/09/21 03:59:00;;;;;;;54.17;34.55;;;;;;;5.09;100.00;99781.22;2050491;29;20193;-79
2021/09/21 04:00:02;;;;;;;54.47;37.00;;;;;;;5.06;100.00;99774.56;2049463;28;20240;-79
2021/09/21 04:01:12;;;;;;;54.53;36.35;;;;;;;5.06;100.00;99784.34;2050497;29;20183;-79
2021/09/21 04:02:13;;;;;;;52.90;36.03;;;;;;;5.04;100.00;99781.16;2050230;29;20234;-79
2021/09/21 04:03:14;;;;;;;56.10;34.70;;;;;;;5.03;100.00;99782.97;2050341;29;20329;-79
2021/09/21 04:04:16;;;;;;;57.40;35.93;;;;;;;5.02;100.00;99784.00;2050310;28;20203;-79
2021/09/21 04:05:16;;;;;;;49.50;35.10;;;;;;;5.06;100.00;99785.16;2050430;28;20232;-79
2021/09/21 04:06:18;;;;;;;50.07;34.40;;;;;;;5.07;100.00;99784.09;2050306;29;20190;-79
2021/09/21 04:07:18;;;;;;;53.83;36.17;;;;;;;5.09;100.00;99787.31;2050441;29;20222;-79
2021/09/21 04:08:20;;;;;;;54.63;35.43;;;;;;;5.09;100.00;99779.38;2050991;28;20198;-79
2021/09/21 04:09:21;;;;;;;53.85;35.35;;;;;;;5.08;100.00;99782.25;2050164;29;20699;-79
2021/09/21 04:10:25;;;;;;;53.63;35.77;;;;;;;5.08;100.00;99785.72;2050381;29;20635;-79
2021/09/21 04:11:25;;;;;;;52.67;34.45;;;;;;;5.09;100.00;99781.22;2050247;29;20191;-78
2021/09/21 04:12:27;;;;;;;60.30;35.70;;;;;;;5.17;100.00;99785.31;2050372;29;20253;-79
2021/09/21 04:13:29;;;;;;;52.72;34.78;;;;;;;5.15;100.00;99785.53;2050286;29;20225;-79
2021/09/21 04:14:31;;;;;;;55.05;35.45;;;;;;;5.13;100.00;99785.00;2050599;29;20199;-79
2021/09/21 04:15:32;;;;;;;57.22;36.85;;;;;;;5.15;100.00;99787.38;2050239;29;20594;-79
2021/09/21 04:16:33;;;;;;;57.90;37.03;;;;;;;5.17;100.00;99782.66;2050164;29;20293;-79
2021/09/21 04:17:36;;;;;;;56.80;36.87;;;;;;;5.17;100.00;99785.31;2050524;29;20199;-79
2021/09/21 04:18:37;;;;;;;57.20;37.30;;;;;;;5.15;100.00;99780.25;2050746;28;20191;-79
2021/09/21 04:19:39;;;;;;;57.57;37.53;;;;;;;5.15;100.00;99787.38;2050826;29;20277;-79
2021/09/21 04:20:40;;;;;;;56.45;36.42;;;;;;;5.15;100.00;99790.03;2049640;29;20233;-79
2021/09/21 04:21:41;;;;;;;56.97;37.53;;;;;;;5.14;100.00;99789.25;2050318;28;20209;-79
2021/09/21 04:22:44;;;;;;;62.88;38.00;;;;;;;5.22;100.00;99783.53;2050209;29;20570;-79
2021/09/21 04:23:45;;;;;;;50.22;34.90;;;;;;;5.23;100.00;99786.97;2050290;29;20190;-79
2021/09/21 04:24:47;;;;;;;56.28;35.65;;;;;;;5.22;100.00;99785.38;2050028;29;20635;-79
2021/09/21 04:25:49;;;;;;;55.78;34.88;;;;;;;5.22;100.00;99794.13;2050282;28;20229;-79
2021/09/21 04:26:50;;;;;;;56.40;37.05;;;;;;;5.21;100.00;99781.09;2050034;28;20301;-79
2021/09/21 04:27:52;;;;;;;57.77;36.73;;;;;;;5.24;100.00;99793.88;2050232;29;20198;-79
2021/09/21 04:28:54;;;;;;;57.67;36.65;;;;;;;5.23;100.00;99784.34;2050796;28;20656;-79
2021/09/21 04:30:00;;;;;;;63.67;38.13;;;;;;;5.26;100.00;99792.56;2049221;29;20265;-79
2021/09/21 04:31:08;;;;;;;57.88;37.08;;;;;;;5.31;100.00;99794.50;2050310;29;20175;-78
2021/09/21 04:32:17;;;;;;;57.47;36.28;;;;;;;5.30;100.00;99792.88;2050056;29;20562;-79
2021/09/21 04:33:17;;;;;;;60.10;36.03;;;;;;;5.28;100.00;99797.63;2050337;29;20222;-79
2021/09/21 04:34:19;;;;;;;63.30;37.23;;;;;;;5.24;100.00;99792.03;2050664;29;20653;-78
2021/09/21 04:35:20;;;;;;;57.10;37.63;;;;;;;5.23;100.00;99793.06;2050774;29;20194;-79
2021/09/21 04:36:22;;;;;;;59.27;38.47;;;;;;;5.22;100.00;99793.31;2050717;29;20201;-78
2021/09/21 04:37:22;;;;;;;56.17;38.45;;;;;;;5.21;100.00;99792.53;2049954;29;20233;-78
2021/09/21 04:38:24;;;;;;;53.73;36.30;;;;;;;5.21;100.00;99796.97;2050228;28;20202;-79
2021/09/21 04:39:26;;;;;;;58.38;38.25;;;;;;;5.23;100.00;99794.91;2050052;29;20219;-78
2021/09/21 04:40:27;;;;;;;60.45;38.05;;;;;;;5.23;100.00;99789.63;2050371;29;20197;-79
2021/09/21 04:41:29;;;;;;;60.47;38.53;;;;;;;5.28;100.00;99795.78;2050629;29;20194;-78
2021/09/21 04:42:29;;;;;;;59.80;39.95;;;;;;;5.31;100.00;99789.22;2050677;29;20225;-78
2021/09/21 04:43:31;;;;;;;58.43;39.83;;;;;;;5.27;100.00;99786.25;2050072;29;20198;-78
2021/09/21 04:44:33;;;;;;;61.42;39.70;;;;;;;5.27;100.00;99794.19;2041909;29;20670;-78
2021/09/21 04:45:36;;;;;;;62.15;39.90;;;;;;;5.29;100.00;99792.09;2050133;29;20692;-78
2021/09/21 04:46:39;;;;;;;63.47;40.08;;;;;;;5.30;100.00;99792.88;2050717;29;20657;-78
2021/09/21 04:47:41;;;;;;;68.18;40.03;;;;;;;5.32;100.00;99796.09;2049926;28;20198;-78
2021/09/21 04:48:43;;;;;;;64.82;40.10;;;;;;;5.28;100.00;99798.41;2050113;29;20760;-78
2021/09/21 04:49:45;;;;;;;60.33;40.58;;;;;;;5.31;100.00;99800.59;2050191;28;20315;-78
2021/09/21 04:50:45;;;;;;;66.05;40.13;;;;;;;5.32;100.00;99804.03;2050814;29;20193;-78
2021/09/21 04:51:47;;;;;;;72.97;40.67;;;;;;;5.33;100.00;99803.78;2049895;29;20201;-78
2021/09/21 04:52:48;;;;;;;67.93;40.60;;;;;;;5.33;100.00;99803.78;2042132;29;20290;-78